Mariq — SVA2152 — position and weather

sailwx.info

Track history (hours):
 
Tides and Currents Weather Stations Pressure Air Temp Water Temp Dewpoint Dewpoint Depression Visibility Wind Speed Wind Dir Waves Ship Positions

Mariq

Last reported at 2015-Jan-19 18:11 UTC. Time now 2015-Jan-26 12:32 UTC.
Position N 37°25' E 024°44'.

Length 57 m.

Type: Tanker. MMSI: 239758424.

Date/timePositionNaut miles runAvg speedWind from/ knotsBaromVisibWave heightAir tempDewpointWater temp
2015-Jan-19 18:11N 37°25' E 024°44'610.0
2015-Jan-19 17:33N 37°22' E 024°51'10 9.9
2015-Jan-19 16:33N 37°20' E 025°03'1110.7
2015-Jan-19 15:33N 37°18' E 025°16'1110.8
2015-Jan-19 14:33N 37°16' E 025°30'1110.6
2015-Jan-19 13:33N 37°14' E 025°43'84 2.3
2015-Jan-18 01:18N 36°48' E 027°23'26 6.3
2015-Jan-17 21:06N 36°37' E 027°53'  
2015-Jan-14 06:22N 36°48' E 027°22'47 1.1
2015-Jan-12 13:09N 36°27' E 028°14'16 4.0
2015-Jan-12 09:09N 36°17' E 028°29'98 2.0
2015-Jan-10 09:08N 36°44' E 026°32'610.1
2015-Jan-10 08:33N 36°47' E 026°26'1010.0
2015-Jan-10 07:32N 36°51' E 026°14'1110.4
2015-Jan-10 06:27N 36°56' E 026°02'3 3.8
2015-Jan-10 05:33N 36°54' E 025°59'0 0.0
2015-Jan-10 04:33N 36°54' E 025°59'0 0.0
2015-Jan-10 03:33N 36°54' E 025°59'0 0.0
2015-Jan-10 02:33N 36°54' E 025°59'0 0.0
2015-Jan-10 01:33N 36°54' E 025°59'0 0.0
2015-Jan-10 00:33N 36°54' E 025°59'5 5.1
2015-Jan-09 23:33N 36°53' E 025°52'4 3.7
2015-Jan-09 22:33N 36°50' E 025°52'0 0.0
2015-Jan-09 21:31N 36°50' E 025°52'0 0.0
2015-Jan-09 20:33N 36°50' E 025°52'0 0.0
2015-Jan-09 19:33N 36°50' E 025°52'0 0.0
2015-Jan-09 18:33N 36°50' E 025°52'  
Track history (hours):
 
Tides and Currents Weather Stations Pressure Air Temp Water Temp Dewpoint Dewpoint Depression Visibility Wind Speed Wind Dir Waves Ship Positions

Mariq

Last reported at 2015-Jan-19 18:11 UTC. Time now 2015-Jan-26 12:32 UTC.
Position N 37°25' E 024°44'.

Length 57 m.

Type: Tanker. MMSI: 239758424.

Date/timePositionNaut miles runAvg speedWind from/ knotsBaromVisibWave heightAir tempDewpointWater temp
2015-Jan-19 18:11N 37°25' E 024°44'610.0
2015-Jan-19 17:33N 37°22' E 024°51'10 9.9
2015-Jan-19 16:33N 37°20' E 025°03'1110.7
2015-Jan-19 15:33N 37°18' E 025°16'1110.8
2015-Jan-19 14:33N 37°16' E 025°30'1110.6
2015-Jan-19 13:33N 37°14' E 025°43'84 2.3
2015-Jan-18 01:18N 36°48' E 027°23'26 6.3
2015-Jan-17 21:06N 36°37' E 027°53'  
2015-Jan-14 06:22N 36°48' E 027°22'47 1.1
2015-Jan-12 13:09N 36°27' E 028°14'16 4.0
2015-Jan-12 09:09N 36°17' E 028°29'98 2.0
2015-Jan-10 09:08N 36°44' E 026°32'610.1
2015-Jan-10 08:33N 36°47' E 026°26'1010.0
2015-Jan-10 07:32N 36°51' E 026°14'1110.4
2015-Jan-10 06:27N 36°56' E 026°02'3 3.8
2015-Jan-10 05:33N 36°54' E 025°59'0 0.0
2015-Jan-10 04:33N 36°54' E 025°59'0 0.0
2015-Jan-10 03:33N 36°54' E 025°59'0 0.0
2015-Jan-10 02:33N 36°54' E 025°59'0 0.0
2015-Jan-10 01:33N 36°54' E 025°59'0 0.0
2015-Jan-10 00:33N 36°54' E 025°59'5 5.1
2015-Jan-09 23:33N 36°53' E 025°52'4 3.7
2015-Jan-09 22:33N 36°50' E 025°52'0 0.0
2015-Jan-09 21:31N 36°50' E 025°52'0 0.0
2015-Jan-09 20:33N 36°50' E 025°52'0 0.0
2015-Jan-09 19:33N 36°50' E 025°52'0 0.0
2015-Jan-09 18:33N 36°50' E 025°52'  

Dump ship's entire track history